createdAt,value
2022-09-01T00:01:50.159Z,20.79
2022-09-01T00:04:22.053Z,20.85
2022-09-01T00:06:50.222Z,20.73
2022-09-01T00:09:19.513Z,20.73
2022-09-01T00:11:51.068Z,20.81
2022-09-01T00:14:29.728Z,20.84
2022-09-01T00:17:00.570Z,20.80
2022-09-01T00:19:31.593Z,20.73
2022-09-01T00:22:00.359Z,20.97
2022-09-01T00:24:28.003Z,20.95
2022-09-01T00:26:56.959Z,20.87
2022-09-01T00:29:26.263Z,20.86
2022-09-01T00:31:53.939Z,20.86
2022-09-01T00:34:25.225Z,20.94
2022-09-01T00:36:55.529Z,20.82
2022-09-01T00:39:22.972Z,20.82
2022-09-01T00:41:50.280Z,20.84
2022-09-01T00:44:20.521Z,20.84
2022-09-01T00:46:55.511Z,20.92
2022-09-01T00:49:51.271Z,20.90
2022-09-01T00:52:42.983Z,20.84
2022-09-01T00:55:16.251Z,20.92
2022-09-01T00:57:45.461Z,20.60
2022-09-01T01:00:34.319Z,20.67
2022-09-01T01:03:01.803Z,20.67
2022-09-01T01:05:36.589Z,20.65
2022-09-01T01:08:05.003Z,20.67
2022-09-01T01:10:36.824Z,20.60
2022-09-01T01:13:16.975Z,20.58
2022-09-01T01:15:44.745Z,20.51
2022-09-01T01:18:23.011Z,20.46
2022-09-01T01:21:04.434Z,20.44
2022-09-01T01:23:48.015Z,20.40
2022-09-01T01:26:15.575Z,20.44
2022-09-01T01:28:43.479Z,20.42
2022-09-01T01:31:18.558Z,20.38
2022-09-01T01:33:53.321Z,20.26
2022-09-01T01:36:27.533Z,20.33
2022-09-01T01:38:54.902Z,20.29
2022-09-01T01:41:22.156Z,20.42
2022-09-01T01:43:49.386Z,20.40
2022-09-01T01:46:20.696Z,20.33
2022-09-01T01:48:50.022Z,20.42
2022-09-01T01:51:19.073Z,20.39
2022-09-01T01:53:46.428Z,20.35
2022-09-01T01:56:14.382Z,20.30
2022-09-01T01:58:41.913Z,20.34
2022-09-01T02:01:09.343Z,20.39
2022-09-01T02:03:36.753Z,20.40
2022-09-01T02:06:09.168Z,20.40
2022-09-01T02:08:38.450Z,20.33
2022-09-01T02:11:07.719Z,20.41
2022-09-01T02:13:35.271Z,20.33
2022-09-01T02:16:06.362Z,20.44
2022-09-01T02:18:36.830Z,20.36
2022-09-01T02:21:06.671Z,20.35
2022-09-01T02:23:33.991Z,20.36
2022-09-01T02:26:17.970Z,20.32
2022-09-01T02:28:52.142Z,20.38
2022-09-01T02:31:22.461Z,20.29
2022-09-01T02:33:50.373Z,20.32
2022-09-01T02:36:18.654Z,20.40
2022-09-01T02:38:53.396Z,20.33
2022-09-01T02:41:22.729Z,20.55
2022-09-01T02:43:50.886Z,21.03
2022-09-01T02:46:18.794Z,21.31
2022-09-01T02:48:46.429Z,21.47
2022-09-01T02:51:17.071Z,21.62
2022-09-01T02:53:48.869Z,21.63
2022-09-01T02:56:16.279Z,21.49
2022-09-01T02:58:45.822Z,21.47
2022-09-01T03:01:26.155Z,21.84
2022-09-01T03:03:58.753Z,21.85
2022-09-01T03:06:26.854Z,21.84
2022-09-01T03:08:56.891Z,21.81
2022-09-01T03:11:24.413Z,21.80
2022-09-01T03:13:52.925Z,21.70
2022-09-01T03:16:21.167Z,21.43
2022-09-01T03:18:48.802Z,21.39
2022-09-01T03:21:16.343Z,21.47
2022-09-01T03:23:48.188Z,21.37
2022-09-01T03:26:16.972Z,21.62
2022-09-01T03:28:45.198Z,21.53
2022-09-01T03:31:13.322Z,21.70
2022-09-01T03:33:41.193Z,21.67
2022-09-01T03:36:15.127Z,21.56
2022-09-01T03:38:43.016Z,21.35
2022-09-01T03:41:10.501Z,21.46
2022-09-01T03:43:37.886Z,21.65
2022-09-01T03:46:18.146Z,21.57
2022-09-01T03:48:56.540Z,21.76
2022-09-01T03:51:25.447Z,22.09
2022-09-01T03:53:54.492Z,21.83
2022-09-01T03:56:25.830Z,21.99
2022-09-01T03:58:56.790Z,21.62
2022-09-01T04:01:29.187Z,21.67
2022-09-01T04:03:57.187Z,21.73
2022-09-01T04:06:28.061Z,21.46
2022-09-01T04:08:56.033Z,21.54
2022-09-01T04:11:30.739Z,21.71
2022-09-01T04:13:59.334Z,21.79
2022-09-01T04:16:30.430Z,21.72
2022-09-01T04:18:59.531Z,21.70
2022-09-01T04:21:29.847Z,21.47
2022-09-01T04:24:02.156Z,21.49
2022-09-01T04:26:29.643Z,21.57
2022-09-01T04:28:59.932Z,21.59
2022-09-01T04:31:30.398Z,21.43
2022-09-01T04:34:01.046Z,21.57
2022-09-01T04:36:34.510Z,21.68
2022-09-01T04:39:04.124Z,21.96
2022-09-01T04:41:33.862Z,22.00
2022-09-01T04:44:02.960Z,22.07
2022-09-01T04:46:33.022Z,22.16
2022-09-01T04:49:04.339Z,22.03
2022-09-01T04:51:32.599Z,22.27
2022-09-01T04:54:02.723Z,22.11
2022-09-01T04:56:32.404Z,22.54
2022-09-01T04:59:03.785Z,22.25
2022-09-01T05:01:31.228Z,22.46
2022-09-01T05:04:01.593Z,22.22
2022-09-01T05:06:32.045Z,22.23
2022-09-01T05:08:59.856Z,22.11
2022-09-01T05:11:30.427Z,22.14
2022-09-01T05:13:58.467Z,22.47
2022-09-01T05:16:26.667Z,22.66
2022-09-01T05:18:57.479Z,22.65
2022-09-01T05:21:25.352Z,23.21
2022-09-01T05:23:55.807Z,22.72
2022-09-01T05:26:31.505Z,22.65
2022-09-01T05:29:02.456Z,22.82
2022-09-01T05:31:31.437Z,23.04
2022-09-01T05:33:59.475Z,23.10
2022-09-01T05:36:30.895Z,22.75
2022-09-01T05:38:58.554Z,22.87
2022-09-01T05:41:26.626Z,23.09
2022-09-01T05:44:00.036Z,21.82
2022-09-01T05:46:28.475Z,22.22
2022-09-01T05:48:57.140Z,22.26
2022-09-01T05:51:43.922Z,22.63
2022-09-01T05:54:12.964Z,22.31
2022-09-01T05:56:44.790Z,22.22
2022-09-01T05:59:29.762Z,22.46
2022-09-01T06:01:58.075Z,22.40
2022-09-01T06:04:26.386Z,23.01
2022-09-01T06:07:06.580Z,23.68
2022-09-01T06:09:43.996Z,23.44
2022-09-01T06:12:23.490Z,23.29
2022-09-01T06:14:55.442Z,23.14
2022-09-01T06:17:26.695Z,23.07
2022-09-01T06:20:01.293Z,23.48
2022-09-01T06:22:37.616Z,23.41
2022-09-01T06:25:09.910Z,23.20
2022-09-01T06:27:44.116Z,23.59
2022-09-01T06:30:22.569Z,23.63
2022-09-01T06:32:56.871Z,23.31
2022-09-01T06:35:48.823Z,23.35
2022-09-01T06:38:19.113Z,23.41
2022-09-01T06:40:51.114Z,23.09
2022-09-01T06:43:22.407Z,23.23
2022-09-01T06:45:53.395Z,23.50
2022-09-01T06:48:26.896Z,23.33
2022-09-01T06:53:52.471Z,23.35
2022-09-01T06:56:20.515Z,23.36
2022-09-01T06:58:48.139Z,23.12
2022-09-01T07:01:19.983Z,23.23
2022-09-01T07:03:52.533Z,23.25
2022-09-01T07:09:20.126Z,23.18
2022-09-01T07:17:34.591Z,23.47
2022-09-01T07:23:04.414Z,23.69
2022-09-01T07:28:36.882Z,23.22
2022-09-01T07:43:08.013Z,23.09
2022-09-01T07:45:47.708Z,23.06
2022-09-01T07:48:36.048Z,23.00
2022-09-01T07:53:58.414Z,23.69
2022-09-01T07:56:29.906Z,23.84
2022-09-01T07:59:05.053Z,23.65
2022-09-01T08:01:35.771Z,23.72
2022-09-01T08:04:06.244Z,23.75
2022-09-01T08:06:38.547Z,24.13
2022-09-01T08:09:06.857Z,24.04
2022-09-01T08:12:01.686Z,23.95
2022-09-01T08:14:36.374Z,24.00
2022-09-01T08:19:58.129Z,24.14
2022-09-01T08:22:26.316Z,24.19
2022-09-01T08:24:57.826Z,24.29
2022-09-01T08:27:32.589Z,24.03
2022-09-01T08:30:04.821Z,23.94
2022-09-01T08:32:32.664Z,23.68
2022-09-01T08:35:04.013Z,24.04
2022-09-01T08:37:34.447Z,24.34
2022-09-01T08:40:03.888Z,24.55
2022-09-01T08:43:11.940Z,24.52
2022-09-01T08:45:51.936Z,24.57
2022-09-01T08:51:44.058Z,24.64
2022-09-01T08:54:29.824Z,24.99
2022-09-01T08:57:05.957Z,24.83
2022-09-01T08:59:39.507Z,24.55
2022-09-01T09:02:10.192Z,24.86
2022-09-01T09:04:46.681Z,24.91
2022-09-01T09:07:24.462Z,25.05
2022-09-01T09:10:03.971Z,25.06
2022-09-01T09:12:52.757Z,24.73
2022-09-01T09:15:38.317Z,24.94
2022-09-01T09:18:39.435Z,24.85
2022-09-01T09:21:22.948Z,25.17
2022-09-01T09:24:09.869Z,25.39
2022-09-01T09:26:44.906Z,25.54
2022-09-01T09:29:18.588Z,25.65
2022-09-01T09:32:06.651Z,25.38
2022-09-01T09:34:37.383Z,25.32
2022-09-01T09:37:28.747Z,25.12
2022-09-01T09:40:09.928Z,25.38
2022-09-01T09:42:43.851Z,25.53
2022-09-01T09:45:26.021Z,25.29
2022-09-01T09:47:55.880Z,25.62
2022-09-01T09:50:26.578Z,25.91
2022-09-01T09:53:16.185Z,25.79
2022-09-01T09:55:56.877Z,25.67
2022-09-01T09:58:36.302Z,25.52
2022-09-01T10:01:28.896Z,25.28
2022-09-01T10:04:04.951Z,25.38
2022-09-01T10:06:47.815Z,25.66
2022-09-01T10:09:25.116Z,25.80
2022-09-01T10:11:57.273Z,25.94
2022-09-01T10:14:53.187Z,25.95
2022-09-01T10:17:35.670Z,26.08
2022-09-01T10:20:17.643Z,25.78
2022-09-01T10:22:45.912Z,25.69
2022-09-01T10:25:23.473Z,25.82
2022-09-01T10:28:01.855Z,26.21
2022-09-01T10:30:30.632Z,25.96
2022-09-01T10:33:11.014Z,25.98
2022-09-01T10:35:49.658Z,25.92
2022-09-01T10:38:29.198Z,25.86
2022-09-01T10:40:59.762Z,25.87
2022-09-01T10:43:37.891Z,25.94
2022-09-01T10:46:41.091Z,25.99
2022-09-01T10:49:29.797Z,25.98
2022-09-01T10:52:03.332Z,25.85
2022-09-01T10:54:51.042Z,26.07
2022-09-01T10:57:41.881Z,25.91
2022-09-01T11:00:36.974Z,25.80
2022-09-01T11:06:18.962Z,25.78
2022-09-01T11:09:00.521Z,25.62
2022-09-01T11:11:48.948Z,25.48
2022-09-01T11:14:25.170Z,25.42
2022-09-01T11:17:27.747Z,25.67
2022-09-01T11:20:01.016Z,25.75
2022-09-01T11:22:41.280Z,25.94
2022-09-01T11:25:40.287Z,26.08
2022-09-01T11:28:28.662Z,25.73
2022-09-01T11:31:10.779Z,25.74
2022-09-01T11:33:56.346Z,25.86
2022-09-01T11:36:43.108Z,25.64
2022-09-01T11:39:13.886Z,25.59
2022-09-01T11:42:10.842Z,25.73
2022-09-01T11:44:42.678Z,25.95
2022-09-01T11:47:29.043Z,25.93
2022-09-01T11:50:04.187Z,25.88
2022-09-01T11:52:42.371Z,26.16
2022-09-01T11:55:13.724Z,25.95
2022-09-01T11:57:44.352Z,25.84
2022-09-01T12:00:14.545Z,25.73
2022-09-01T12:02:48.202Z,25.70
2022-09-01T12:05:31.458Z,25.81
2022-09-01T12:08:13.088Z,25.88
2022-09-01T12:10:45.624Z,25.87
2022-09-01T12:13:22.397Z,25.82
2022-09-01T12:16:18.333Z,25.82
2022-09-01T12:18:53.511Z,25.96
2022-09-01T12:21:39.777Z,25.94
2022-09-01T12:24:36.510Z,25.93
2022-09-01T12:27:13.791Z,25.88
2022-09-01T12:29:49.360Z,25.88
2022-09-01T12:32:19.905Z,25.97
2022-09-01T12:35:11.488Z,26.10
2022-09-01T12:37:42.616Z,26.17
2022-09-01T12:40:35.456Z,26.22
2022-09-01T12:43:05.637Z,26.08
2022-09-01T12:45:51.100Z,26.03
2022-09-01T12:48:37.931Z,26.02
2022-09-01T12:51:27.998Z,26.03
2022-09-01T12:54:04.579Z,26.11
2022-09-01T12:56:36.664Z,26.27
2022-09-01T12:59:29.923Z,26.29
2022-09-01T13:02:44.781Z,26.20
2022-09-01T13:05:34.600Z,26.10
2022-09-01T13:08:23.529Z,26.09
2022-09-01T13:11:14.192Z,26.07
2022-09-01T13:13:51.146Z,26.04
2022-09-01T13:16:25.245Z,25.98
2022-09-01T13:19:26.588Z,25.90
2022-09-01T13:21:52.824Z,25.89
2022-09-01T13:24:27.890Z,25.92
2022-09-01T13:29:55.541Z,25.93
2022-09-01T13:32:26.696Z,25.94
2022-09-01T13:34:55.091Z,26.01
2022-09-01T13:37:25.320Z,25.96
2022-09-01T13:39:56.005Z,25.93
2022-09-01T13:42:28.542Z,25.87
2022-09-01T13:45:02.946Z,25.91
2022-09-01T13:47:35.307Z,25.93
2022-09-01T13:50:28.758Z,25.88
2022-09-01T13:53:21.481Z,25.89
2022-09-01T13:55:51.740Z,25.80
2022-09-01T13:58:28.168Z,25.78
2022-09-01T14:01:01.570Z,25.78
2022-09-01T14:03:35.230Z,25.73
2022-09-01T14:06:06.892Z,25.69
2022-09-01T14:08:39.270Z,25.71
2022-09-01T14:11:09.039Z,25.66
2022-09-01T14:13:45.863Z,25.67
2022-09-01T14:16:20.150Z,25.70
2022-09-01T14:18:51.001Z,25.72
2022-09-01T14:21:24.530Z,25.70
2022-09-01T14:23:53.153Z,25.77
2022-09-01T14:26:23.349Z,25.75
2022-09-01T14:28:58.737Z,25.76
2022-09-01T14:31:33.546Z,25.75
2022-09-01T14:34:05.370Z,25.72
2022-09-01T14:36:36.605Z,25.77
2022-09-01T14:39:06.150Z,25.73
2022-09-01T14:41:36.599Z,25.71
2022-09-01T14:44:06.965Z,25.70
2022-09-01T14:46:35.456Z,25.69
2022-09-01T14:49:04.211Z,25.66
2022-09-01T14:54:31.156Z,25.67
2022-09-01T15:00:04.962Z,25.69
2022-09-01T15:02:32.978Z,25.71
2022-09-01T15:05:09.461Z,25.67
2022-09-01T15:07:42.015Z,25.66
2022-09-01T15:10:15.815Z,25.68
2022-09-01T15:13:10.176Z,25.75
2022-09-01T15:16:00.267Z,25.77
2022-09-01T15:18:53.296Z,25.70
2022-09-01T15:21:45.530Z,25.71
2022-09-01T15:24:37.037Z,25.68
2022-09-01T15:27:14.507Z,25.65
2022-09-01T15:29:45.470Z,25.70
2022-09-01T15:32:28.045Z,25.63
2022-09-01T15:35:08.004Z,25.70
2022-09-01T15:37:43.220Z,25.65
2022-09-01T15:40:11.101Z,25.58
2022-09-01T15:42:39.234Z,25.55
2022-09-01T15:45:15.199Z,25.56
2022-09-01T15:47:46.114Z,25.54
2022-09-01T15:50:27.425Z,25.54
2022-09-01T15:52:58.725Z,25.50
2022-09-01T15:55:37.236Z,25.48
2022-09-01T15:58:09.550Z,25.53
2022-09-01T16:00:43.857Z,25.52
2022-09-01T16:03:15.477Z,25.46
2022-09-01T16:05:49.584Z,25.38
2022-09-01T16:08:22.729Z,25.40
2022-09-01T16:10:57.121Z,25.27
2022-09-01T16:13:24.816Z,25.27
2022-09-01T16:16:11.328Z,25.30
2022-09-01T16:18:50.496Z,25.19
2022-09-01T16:21:39.089Z,25.19
2022-09-01T16:24:17.050Z,25.15
2022-09-01T16:26:48.088Z,25.07
2022-09-01T16:29:53.453Z,25.01
2022-09-01T16:32:21.982Z,24.88
2022-09-01T16:34:53.720Z,24.99
2022-09-01T16:37:43.057Z,24.97
2022-09-01T16:40:32.515Z,25.03
2022-09-01T16:43:15.710Z,25.07
2022-09-01T16:46:01.167Z,25.09
2022-09-01T16:48:38.028Z,25.00
2022-09-01T16:51:37.110Z,24.79
2022-09-01T16:54:52.596Z,24.90
2022-09-01T16:57:38.559Z,24.88
2022-09-01T17:00:15.527Z,24.77
2022-09-01T17:03:17.341Z,24.92
2022-09-01T17:06:02.338Z,24.84
2022-09-01T17:08:41.299Z,24.78
2022-09-01T17:11:17.760Z,24.79
2022-09-01T17:13:50.620Z,24.79
2022-09-01T17:16:48.457Z,24.75
2022-09-01T17:19:19.168Z,24.84
2022-09-01T17:22:11.076Z,24.69
2022-09-01T17:24:46.294Z,24.58
2022-09-01T17:27:31.930Z,24.55
2022-09-01T17:30:02.063Z,24.50
2022-09-01T17:32:32.353Z,24.60
2022-09-01T17:35:18.667Z,24.58
2022-09-01T17:38:11.308Z,24.70
2022-09-01T17:41:12.381Z,24.80
2022-09-01T17:43:46.560Z,24.56
2022-09-01T17:46:36.100Z,24.69
2022-09-01T17:49:47.721Z,24.43
2022-09-01T17:52:35.409Z,24.34
2022-09-01T17:55:16.276Z,24.28
2022-09-01T17:57:49.327Z,24.22
2022-09-01T18:00:29.929Z,24.24
2022-09-01T18:03:15.582Z,24.19
2022-09-01T18:06:08.869Z,24.08
2022-09-01T18:08:53.156Z,24.15
2022-09-01T18:11:51.567Z,24.09
2022-09-01T18:14:34.130Z,24.05
2022-09-01T18:17:31.950Z,24.13
2022-09-01T18:20:11.074Z,24.08
2022-09-01T18:22:51.084Z,23.96
2022-09-01T18:25:29.117Z,23.95
2022-09-01T18:27:57.363Z,24.01
2022-09-01T18:30:51.999Z,24.04
2022-09-01T18:33:40.864Z,23.88
2022-09-01T18:36:44.676Z,23.78
2022-09-01T18:39:20.456Z,23.80
2022-09-01T18:42:18.502Z,23.78
2022-09-01T18:45:28.038Z,23.80
2022-09-01T18:48:43.074Z,23.90
2022-09-01T18:51:35.658Z,23.88
2022-09-01T18:54:29.822Z,23.80
2022-09-01T18:57:02.384Z,23.81
2022-09-01T18:59:52.067Z,23.76
2022-09-01T19:02:44.389Z,23.67
2022-09-01T19:05:38.208Z,23.82
2022-09-01T19:08:20.912Z,23.80
2022-09-01T19:10:58.205Z,23.86
2022-09-01T19:13:43.991Z,23.85
2022-09-01T19:16:45.699Z,23.76
2022-09-01T19:19:40.707Z,23.81
2022-09-01T19:22:14.855Z,23.68
2022-09-01T19:24:50.765Z,23.69
2022-09-01T19:27:31.860Z,23.62
2022-09-01T19:30:05.295Z,23.62
2022-09-01T19:32:35.384Z,23.71
2022-09-01T19:35:13.101Z,23.68
2022-09-01T19:37:41.111Z,23.80
2022-09-01T19:40:09.524Z,23.72
2022-09-01T19:42:39.621Z,23.78
2022-09-01T19:45:21.708Z,23.72
2022-09-01T19:47:55.078Z,23.73
2022-09-01T19:50:29.721Z,23.53
2022-09-01T19:53:05.435Z,23.62
2022-09-01T19:55:41.977Z,23.90
2022-09-01T19:58:16.623Z,23.76
2022-09-01T20:00:51.538Z,23.51
2022-09-01T20:03:36.457Z,23.13
2022-09-01T20:06:17.390Z,23.02
2022-09-01T20:09:09.820Z,22.93
2022-09-01T20:11:58.853Z,22.81
2022-09-01T20:14:52.774Z,22.77
2022-09-01T20:17:37.966Z,22.78
2022-09-01T20:20:13.826Z,22.76
2022-09-01T20:22:57.810Z,22.71
2022-09-01T20:26:14.672Z,22.65
2022-09-01T20:28:54.391Z,22.59
2022-09-01T20:31:34.305Z,22.63
2022-09-01T20:34:32.862Z,22.61
2022-09-01T20:37:12.307Z,22.66
2022-09-01T20:39:47.513Z,22.62
2022-09-01T20:42:42.821Z,22.62
2022-09-01T20:45:19.679Z,22.48
2022-09-01T20:48:00.115Z,22.50
2022-09-01T20:50:44.144Z,22.47
2022-09-01T20:53:23.245Z,22.40
2022-09-01T20:56:13.436Z,22.48
2022-09-01T20:59:06.289Z,22.45
2022-09-01T21:01:47.175Z,22.39
2022-09-01T21:04:28.691Z,22.38
2022-09-01T21:07:20.267Z,22.39
2022-09-01T21:10:02.760Z,22.40
2022-09-01T21:12:41.947Z,22.39
2022-09-01T21:15:29.902Z,22.45
2022-09-01T21:18:15.948Z,22.45
2022-09-01T21:21:08.045Z,22.48
2022-09-01T21:23:38.251Z,22.43
2022-09-01T21:26:08.923Z,22.44
2022-09-01T21:28:40.096Z,22.50
2022-09-01T21:31:23.496Z,22.44
2022-09-01T21:33:57.235Z,22.42
2022-09-01T21:36:27.377Z,22.42
2022-09-01T21:38:57.998Z,22.49
2022-09-01T21:41:26.439Z,22.58
2022-09-01T21:43:53.885Z,22.53
2022-09-01T21:46:28.178Z,22.39
2022-09-01T21:49:02.321Z,22.38
2022-09-01T21:51:33.620Z,22.42
2022-09-01T21:54:04.926Z,22.40
2022-09-01T21:56:36.730Z,22.31
2022-09-01T21:59:06.570Z,22.35
2022-09-01T22:01:39.498Z,22.36
2022-09-01T22:04:10.873Z,22.50
2022-09-01T22:06:49.439Z,22.41
2022-09-01T22:09:20.433Z,22.36
2022-09-01T22:11:51.215Z,22.33
2022-09-01T22:14:24.977Z,22.31
2022-09-01T22:16:55.838Z,22.29
2022-09-01T22:19:27.085Z,22.30
2022-09-01T22:21:55.229Z,22.24
2022-09-01T22:24:26.711Z,22.22
2022-09-01T22:26:57.284Z,22.26
2022-09-01T22:29:24.906Z,22.22
2022-09-01T22:31:55.419Z,22.21
2022-09-01T22:34:27.161Z,22.17
2022-09-01T22:36:57.958Z,22.19
2022-09-01T22:39:28.735Z,22.20
2022-09-01T22:41:58.879Z,22.21
2022-09-01T22:44:30.149Z,22.24
2022-09-01T22:47:00.495Z,22.17
2022-09-01T22:49:33.857Z,22.24
2022-09-01T22:52:01.897Z,22.23
2022-09-01T22:54:35.419Z,22.23
2022-09-01T22:57:09.414Z,22.16
2022-09-01T22:59:41.741Z,22.21
2022-09-01T23:02:10.621Z,22.08
2022-09-01T23:04:39.337Z,22.10
2022-09-01T23:07:11.217Z,22.14
2022-09-01T23:09:41.703Z,22.11
2022-09-01T23:12:13.744Z,22.05
2022-09-01T23:14:45.117Z,22.08
2022-09-01T23:17:24.584Z,21.96
2022-09-01T23:19:59.165Z,21.96
2022-09-01T23:22:29.496Z,22.04
2022-09-01T23:25:02.636Z,21.94
2022-09-01T23:27:33.548Z,21.94
2022-09-01T23:30:00.950Z,21.93
2022-09-01T23:32:31.762Z,21.95
2022-09-01T23:35:06.116Z,21.93
2022-09-01T23:37:36.366Z,21.90
2022-09-01T23:40:06.097Z,21.86
2022-09-01T23:42:33.966Z,21.85
2022-09-01T23:45:12.505Z,21.83
2022-09-01T23:47:41.068Z,21.79
2022-09-01T23:50:12.971Z,21.82
2022-09-01T23:52:43.890Z,21.82
2022-09-01T23:55:17.834Z,21.93
2022-09-01T23:57:49.171Z,21.82
